Time;durP1;ratioP1;P1;durP2;ratioP2;P2;SDS_P1;SDS_P2;PMS_P1;PMS_P2;Temp;Humidity;BMP_temperature;BMP_pressure;BME280_temperature;BME280_humidity;BME280_pressure;Samples;Min_cycle;Max_cycle;Signal;HPM_P1;HPM_P2
2022/01/28 00:01:58;;;;;;;;;;;;;;;-6.46;73.32;95822.50;5074049;28;1092;-48
2022/01/28 00:04:24;;;;;;;;;;;;;;;-6.50;73.09;95819.97;5074083;28;1973;-49
2022/01/28 00:06:50;;;;;;;;;;;;;;;-6.62;72.24;95820.31;5073979;28;1100;-48
2022/01/28 00:09:16;;;;;;;;;;;;;;;-6.67;72.37;95822.19;5073856;28;1287;-48
2022/01/28 00:11:42;;;;;;;;;;;;;;;-6.78;72.66;95819.03;5074102;28;1914;-48
2022/01/28 00:14:29;;;;;;;;;;;;;;;-6.85;73.21;95827.88;5074145;28;957;-48
2022/01/28 00:39:40;;;;;;;;;;;;;;;-6.85;73.35;95818.31;5073438;28;744;-48
2022/01/28 00:42:06;;;;;;;;;;;;;;;-7.10;73.24;95813.75;5073854;28;1094;-48
2022/01/28 00:44:32;;;;;;;;;;;;;;;-7.35;72.56;95815.25;5073548;28;1073;-48
2022/01/28 00:46:58;;;;;;;;;;;;;;;-7.19;73.25;95807.94;5073348;28;977;-48
2022/01/28 00:49:24;;;;;;;;;;;;;;;-7.07;72.61;95810.22;5073427;28;1004;-48
2022/01/28 00:51:50;;;;;;;;;;;;;;;-7.05;71.97;95815.41;5073121;28;1996;-48
2022/01/28 00:54:19;;;;;;;;;;;;;;;-7.08;71.86;95801.56;5073111;28;977;-48
2022/01/28 00:56:46;;;;;;;;;;;;;;;-7.12;72.46;95794.72;5073299;28;1001;-47
2022/01/28 00:59:12;;;;;;;;;;;;;;;-7.21;73.06;95794.97;5073270;28;977;-48
2022/01/28 01:01:38;;;;;;;;;;;;;;;-7.18;72.13;95788.84;5073029;28;1232;-48
2022/01/28 01:04:04;;;;;;;;;;;;;;;-7.38;71.61;95791.94;5073331;28;1001;-48
2022/01/28 01:06:31;;;;;;;;;;;;;;;-7.38;72.78;95787.63;5072994;28;1024;-47
2022/01/28 01:08:57;;;;;;;;;;;;;;;-7.13;72.89;95784.38;5073237;28;1048;-48
2022/01/28 01:11:24;;;;;;;;;;;;;;;-7.00;73.21;95774.53;5072783;28;1906;-48
2022/01/28 01:13:51;;;;;;;;;;;;;;;-7.34;71.37;95778.84;5073130;28;1030;-48
2022/01/28 01:16:25;;;;;;;;;;;;;;;-7.41;72.01;95777.28;5073094;28;1044;-47
2022/01/28 01:19:16;;;;;;;;;;;;;;;-7.37;73.32;95772.88;5073059;28;1109;-47
2022/01/28 01:21:39;;;;;;;;;;;;;;;-7.50;71.88;95769.72;5072624;28;1642;-48
2022/01/28 01:24:08;;;;;;;;;;;;;;;-7.41;72.47;95761.69;5073103;28;993;-48
2022/01/28 01:26:38;;;;;;;;;;;;;;;-7.27;72.88;95749.19;5073103;28;966;-48
2022/01/28 01:29:11;;;;;;;;;;;;;;;-7.40;72.64;95745.19;5072766;28;945;-48
2022/01/28 01:31:41;;;;;;;;;;;;;;;-7.18;72.40;95736.88;5072698;28;1906;-48
2022/01/28 01:34:14;;;;;;;;;;;;;;;-7.30;73.12;95730.25;5072732;28;1051;-48
2022/01/28 01:36:40;;;;;;;;;;;;;;;-7.35;72.71;95730.34;5072680;28;1134;-48
2022/01/28 01:39:09;;;;;;;;;;;;;;;-7.39;71.81;95739.13;5072910;28;1037;-48
2022/01/28 01:41:44;;;;;;;;;;;;;;;-7.38;72.15;95738.25;5072644;28;1101;-48
2022/01/28 01:44:29;;;;;;;;;;;;;;;-7.38;72.68;95720.06;5072746;28;1097;-48
2022/01/28 01:52:38;;;;;;;;;;;;;;;-7.50;72.54;95716.00;5076652;28;1971;-48
2022/01/28 01:55:06;;;;;;;;;;;;;;;-7.77;72.27;95712.38;5076582;28;1054;-48
2022/01/28 01:57:33;;;;;;;;;;;;;;;-7.87;71.64;95718.69;5076490;28;1036;-48
2022/01/28 01:59:59;;;;;;;;;;;;;;;-8.02;71.61;95706.91;5076609;28;1250;-48
2022/01/28 02:02:25;;;;;;;;;;;;;;;-8.14;71.91;95697.66;5076133;28;1161;-47
2022/01/28 02:04:51;;;;;;;;;;;;;;;-7.99;72.91;95704.22;5076641;28;1031;-48
2022/01/28 02:07:18;;;;;;;;;;;;;;;-7.78;72.25;95691.63;5076110;28;1013;-48
2022/01/28 02:09:44;;;;;;;;;;;;;;;-7.80;71.86;95694.25;5076358;28;1053;-48
2022/01/28 02:12:10;;;;;;;;;;;;;;;-7.96;71.31;95695.53;5076319;28;1906;-48
2022/01/28 02:14:37;;;;;;;;;;;;;;;-7.96;71.73;95695.53;5076486;28;977;-47
2022/01/28 02:17:04;;;;;;;;;;;;;;;-7.98;72.10;95680.00;5076093;28;1041;-48
2022/01/28 02:19:30;;;;;;;;;;;;;;;-8.13;72.77;95683.81;5076211;28;1001;-48
2022/01/28 02:21:56;;;;;;;;;;;;;;;-8.03;72.58;95686.19;5075981;28;1081;-48
2022/01/28 02:24:29;;;;;;;;;;;;;;;-8.01;72.15;95687.84;5075931;28;981;-48
2022/01/28 02:26:55;;;;;;;;;;;;;;;-7.92;71.61;95684.19;5075960;28;1096;-48
2022/01/28 02:29:30;;;;;;;;;;;;;;;-7.79;72.23;95683.00;5075976;28;1024;-48
2022/01/28 02:31:57;;;;;;;;;;;;;;;-8.03;70.48;95683.59;5074660;28;1906;-48
2022/01/28 02:34:23;;;;;;;;;;;;;;;-8.19;71.76;95683.94;5075888;28;1073;-48
2022/01/28 02:36:49;;;;;;;;;;;;;;;-8.14;71.86;95683.84;5075666;28;1158;-48
2022/01/28 02:39:15;;;;;;;;;;;;;;;-8.11;71.23;95687.22;5075993;28;1033;-47
2022/01/28 02:41:45;;;;;;;;;;;;;;;-8.07;70.76;95688.00;5075892;28;1052;-48
2022/01/28 02:46:41;;;;;;;;;;;;;;;-8.23;72.10;95687.50;5075734;28;1045;-48
2022/01/28 02:49:10;;;;;;;;;;;;;;;-8.25;72.05;95686.69;5074374;28;1082;-48
2022/01/28 02:51:36;;;;;;;;;;;;;;;-8.20;71.76;95686.56;5074197;28;1906;-48
2022/01/28 02:54:13;;;;;;;;;;;;;;;-8.38;71.46;95687.84;5075465;28;1069;-48
2022/01/28 02:56:47;;;;;;;;;;;;;;;-8.45;72.02;95685.41;5075487;28;1048;-48
2022/01/28 02:59:13;;;;;;;;;;;;;;;-8.43;71.52;95675.00;5075580;28;1058;-48
2022/01/28 03:01:39;;;;;;;;;;;;;;;-8.46;72.06;95678.53;5075288;28;1101;-48
2022/01/28 03:04:07;;;;;;;;;;;;;;;-8.40;71.98;95668.84;5075485;28;1061;-48
2022/01/28 03:06:33;;;;;;;;;;;;;;;-8.20;71.71;95671.00;5075804;28;969;-48
2022/01/28 03:09:07;;;;;;;;;;;;;;;-8.15;71.18;95663.97;5073956;28;1101;-48
2022/01/28 03:16:52;;;;;;;;;;;;;;;-8.18;71.71;95662.28;5075432;28;1048;-48
2022/01/28 03:19:21;;;;;;;;;;;;;;;-8.05;71.04;95663.69;5075192;28;1037;-48
2022/01/28 03:21:57;;;;;;;;;;;;;;;-8.35;70.14;95651.47;5075027;28;1089;-48
2022/01/28 03:24:24;;;;;;;;;;;;;;;-8.39;71.29;95657.59;5075041;28;1005;-48
2022/01/28 03:26:54;;;;;;;;;;;;;;;-8.27;71.65;95665.09;5074930;28;1057;-48
2022/01/28 03:29:20;;;;;;;;;;;;;;;-8.18;71.44;95657.09;5074868;28;1004;-48
2022/01/28 03:31:46;;;;;;;;;;;;;;;-8.33;70.99;95658.31;5075246;28;1914;-48
2022/01/28 03:34:12;;;;;;;;;;;;;;;-8.39;71.14;95653.25;5073780;28;1013;-48
2022/01/28 03:36:38;;;;;;;;;;;;;;;-8.35;71.74;95648.88;5074618;28;1225;-48
2022/01/28 03:39:04;;;;;;;;;;;;;;;-8.17;71.73;95651.03;5074589;28;1034;-48
2022/01/28 03:41:30;;;;;;;;;;;;;;;-7.97;71.26;95644.50;5074525;28;1316;-48
2022/01/28 03:44:00;;;;;;;;;;;;;;;-8.39;70.15;95640.28;5073335;28;1074;-48
2022/01/28 03:46:27;;;;;;;;;;;;;;;-8.44;71.14;95649.97;5074951;28;993;-48
2022/01/28 03:48:54;;;;;;;;;;;;;;;-8.52;72.17;95637.16;5073554;28;1013;-48
2022/01/28 03:51:20;;;;;;;;;;;;;;;-8.39;72.44;95634.25;5073351;28;1910;-48
2022/01/28 03:53:46;;;;;;;;;;;;;;;-8.24;72.23;95642.53;5074748;28;1076;-48
2022/01/28 03:56:12;;;;;;;;;;;;;;;-8.26;71.87;95646.06;5074420;28;1076;-48
2022/01/28 03:58:38;;;;;;;;;;;;;;;-8.34;71.75;95625.50;5074545;28;1035;-48
2022/01/28 04:01:11;;;;;;;;;;;;;;;-8.41;70.25;95625.69;5073374;28;1137;-48
2022/01/28 04:03:42;;;;;;;;;;;;;;;-8.67;70.46;95629.72;5073172;28;1080;-48
2022/01/28 04:11:39;;;;;;;;;;;;;;;-8.58;71.84;95634.72;5074350;28;1938;-48
2022/01/28 04:14:24;;;;;;;;;;;;;;;-8.68;72.70;95628.88;5072740;28;1885;-48
2022/01/28 04:19:36;;;;;;;;;;;;;;;-8.60;72.05;95627.88;5074164;28;966;-48
2022/01/28 04:22:02;;;;;;;;;;;;;;;-8.63;71.53;95626.22;5074004;28;982;-48
2022/01/28 04:24:28;;;;;;;;;;;;;;;-8.78;70.76;95626.50;5072588;28;969;-48
2022/01/28 04:26:54;;;;;;;;;;;;;;;-8.93;72.30;95617.38;5072757;28;969;-48
2022/01/28 04:29:20;;;;;;;;;;;;;;;-8.94;72.46;95628.59;5073392;28;1033;-48
2022/01/28 04:31:48;;;;;;;;;;;;;;;-8.89;72.25;95629.38;5072392;28;1918;-48
2022/01/28 04:34:15;;;;;;;;;;;;;;;-8.93;72.12;95625.97;5073687;28;1070;-48
2022/01/28 04:36:55;;;;;;;;;;;;;;;-8.84;71.58;95620.59;5072491;28;1222;-48
2022/01/28 04:39:33;;;;;;;;;;;;;;;-8.95;71.08;95619.97;5072446;28;969;-48
2022/01/28 04:44:36;;;;;;;;;;;;;;;-8.84;72.07;95627.50;5073901;28;962;-48
2022/01/28 04:47:11;;;;;;;;;;;;;;;-8.77;70.83;95629.09;5073884;28;1047;-48
2022/01/28 05:00:05;;;;;;;;;;;;;;;-8.76;70.86;95633.41;5073368;28;949;-48
2022/01/28 05:02:56;;;;;;;;;;;;;;;-8.80;70.48;95630.88;5073104;28;1235;-48
2022/01/28 05:27:15;;;;;;;;;;;;;;;-9.33;70.65;95644.94;5073543;28;1011;-48
2022/01/28 05:29:41;;;;;;;;;;;;;;;-9.19;71.56;95636.88;5071860;28;1085;-48
2022/01/28 05:32:08;;;;;;;;;;;;;;;-9.16;71.12;95642.00;5073091;28;1888;-48
2022/01/28 05:34:34;;;;;;;;;;;;;;;-9.10;71.41;95646.22;5072909;28;1049;-48
2022/01/28 05:37:01;;;;;;;;;;;;;;;-9.13;71.23;95648.84;5071799;28;1170;-48
2022/01/28 05:39:27;;;;;;;;;;;;;;;-9.08;70.28;95649.63;5071872;28;1027;-48
2022/01/28 05:41:53;;;;;;;;;;;;;;;-9.26;70.79;95650.81;5072234;28;1020;-48
2022/01/28 05:44:20;;;;;;;;;;;;;;;-9.27;71.42;95652.56;5071824;28;1054;-48
2022/01/28 05:46:47;;;;;;;;;;;;;;;-9.13;71.44;95648.84;5072136;28;1511;-48
2022/01/28 05:49:13;;;;;;;;;;;;;;;-9.12;71.38;95647.97;5071968;28;1660;-48
2022/01/28 05:51:40;;;;;;;;;;;;;;;-9.09;71.24;95648.75;5072647;28;1911;-48
2022/01/28 05:54:06;;;;;;;;;;;;;;;-9.12;69.41;95642.81;5073311;28;1032;-48
2022/01/28 05:56:32;;;;;;;;;;;;;;;-9.39;70.16;95645.03;5073174;28;1008;-48
2022/01/28 05:58:58;;;;;;;;;;;;;;;-9.27;70.50;95647.41;5071731;28;1033;-48
2022/01/28 06:01:25;;;;;;;;;;;;;;;-9.14;70.52;95645.41;5072613;28;1116;-48
2022/01/28 06:03:52;;;;;;;;;;;;;;;-9.05;70.38;95634.88;5071617;28;1031;-48
2022/01/28 06:06:23;;;;;;;;;;;;;;;-9.12;70.68;95642.81;5071547;28;1028;-48
2022/01/28 06:08:53;;;;;;;;;;;;;;;-9.05;70.39;95647.81;5073002;28;1060;-49
2022/01/28 06:11:19;;;;;;;;;;;;;;;-8.89;70.22;95650.94;5071999;28;1065;-48
2022/01/28 06:13:46;;;;;;;;;;;;;;;-8.88;69.64;95651.78;5071378;28;1913;-48
2022/01/28 06:16:14;;;;;;;;;;;;;;;-9.02;68.83;95653.81;5072632;28;1657;-48
2022/01/28 06:18:40;;;;;;;;;;;;;;;-8.87;69.50;95648.31;5071929;28;1017;-48
2022/01/28 06:21:07;;;;;;;;;;;;;;;-8.80;69.68;95642.13;5072551;28;975;-48
2022/01/28 06:23:33;;;;;;;;;;;;;;;-8.42;69.08;95643.00;5071733;28;982;-49
2022/01/28 06:26:00;;;;;;;;;;;;;;;-6.15;63.05;95651.50;5072705;28;1393;-48
2022/01/28 06:28:26;;;;;;;;;;;;;;;-2.74;51.63;95644.66;5072213;28;1054;-49
2022/01/28 06:30:52;;;;;;;;;;;;;;;-0.18;44.96;95639.91;5072544;28;2003;-49
2022/01/28 06:33:18;;;;;;;;;;;;;;;1.11;42.36;95635.16;5073679;28;1910;-49
2022/01/28 06:35:45;;;;;;;;;;;;;;;1.42;40.44;95641.22;5074643;28;1897;-48
2022/01/28 06:38:11;;;;;;;;;;;;;;;0.49;42.04;95649.28;5074896;28;1179;-49
2022/01/28 06:40:37;;;;;;;;;;;;;;;-1.65;45.48;95659.69;5074732;28;973;-49
2022/01/28 06:43:03;;;;;;;;;;;;;;;-1.99;47.82;95664.78;5074951;28;938;-49
2022/01/28 06:45:29;;;;;;;;;;;;;;;-0.98;46.55;95679.13;5075650;28;1017;-49
2022/01/28 06:47:55;;;;;;;;;;;;;;;0.63;43.48;95677.44;5076063;28;976;-49
2022/01/28 06:50:21;;;;;;;;;;;;;;;0.31;43.42;95679.28;5074629;28;1036;-49
2022/01/28 06:52:47;;;;;;;;;;;;;;;0.14;42.98;95675.78;5074700;28;1906;-48
2022/01/28 06:55:16;;;;;;;;;;;;;;;0.39;42.92;95682.31;5108426;28;981;-48
2022/01/28 06:57:42;;;;;;;;;;;;;;;-1.07;46.37;95685.66;5075417;28;969;-49
2022/01/28 07:00:09;;;;;;;;;;;;;;;-2.37;51.21;95691.00;5075844;28;1032;-49
2022/01/28 07:02:36;;;;;;;;;;;;;;;-3.48;53.03;95683.59;5075733;28;1117;-48
2022/01/28 07:05:03;;;;;;;;;;;;;;;-2.78;52.21;95671.91;5075869;28;957;-49
2022/01/28 07:07:29;;;;;;;;;;;;;;;-1.21;49.23;95677.66;5075576;28;1056;-48
2022/01/28 07:09:55;;;;;;;;;;;;;;;1.08;44.33;95670.44;5075923;28;926;-49
2022/01/28 07:12:21;;;;;;;;;;;;;;;2.68;40.89;95676.34;5075354;28;1909;-49
2022/01/28 07:14:48;;;;;;;;;;;;;;;4.18;39.05;95666.19;5075496;28;2040;-49
2022/01/28 07:17:14;;;;;;;;;;;;;;;6.28;35.29;95672.53;5075125;28;1136;-49
2022/01/28 07:19:40;;;;;;;;;;;;;;;8.08;31.78;95671.78;5075208;28;1116;-49
2022/01/28 07:22:07;;;;;;;;;;;;;;;8.54;30.94;95672.28;5107474;28;1129;-49
2022/01/28 07:24:34;;;;;;;;;;;;;;;8.64;31.01;95672.31;5074453;28;1043;-50
2022/01/28 07:27:00;;;;;;;;;;;;;;;8.82;31.04;95685.81;5075045;28;1877;-49
2022/01/28 07:29:29;;;;;;;;;;;;;;;8.24;32.05;95678.44;5074745;28;1034;-50
2022/01/28 07:31:56;;;;;;;;;;;;;;;8.08;32.19;95678.91;5075156;28;2000;-49
2022/01/28 07:34:22;;;;;;;;;;;;;;;8.85;31.68;95681.03;5074843;28;1053;-49
2022/01/28 07:36:48;;;;;;;;;;;;;;;9.66;30.13;95679.97;5074723;28;1209;-50
2022/01/28 07:39:15;;;;;;;;;;;;;;;9.19;30.67;95680.66;5074917;28;1097;-50
2022/01/28 07:41:41;;;;;;;;;;;;;;;8.78;31.40;95680.75;5073554;28;1124;-50
2022/01/28 07:44:07;;;;;;;;;;;;;;;9.56;30.24;95690.63;5073625;28;1037;-49
2022/01/28 07:46:33;;;;;;;;;;;;;;;9.98;30.10;95684.97;5074922;28;1044;-49
2022/01/28 07:49:00;;;;;;;;;;;;;;;10.82;28.93;95688.59;5074677;28;1053;-50
2022/01/28 07:51:26;;;;;;;;;;;;;;;9.77;30.17;95688.66;5074531;28;2003;-50
2022/01/28 07:53:52;;;;;;;;;;;;;;;7.58;33.59;95693.75;5074732;28;1004;-50
2022/01/28 07:56:18;;;;;;;;;;;;;;;7.26;34.39;95696.47;5074474;28;1032;-49
2022/01/28 07:58:44;;;;;;;;;;;;;;;7.47;34.30;95707.13;5074395;28;976;-50
2022/01/28 08:01:10;;;;;;;;;;;;;;;7.34;34.66;95709.13;5074408;28;1334;-50
2022/01/28 08:03:36;;;;;;;;;;;;;;;8.21;33.01;95692.88;5074286;28;974;-49
2022/01/28 08:06:02;;;;;;;;;;;;;;;9.28;31.71;95698.50;5074580;28;1040;-50
2022/01/28 08:08:30;;;;;;;;;;;;;;;8.10;33.24;95707.13;5074303;28;1059;-49
2022/01/28 08:10:56;;;;;;;;;;;;;;;7.33;34.49;95713.59;5074151;28;1028;-49
2022/01/28 08:13:22;;;;;;;;;;;;;;;4.95;38.84;95708.28;5074238;28;1989;-50
2022/01/28 08:15:49;;;;;;;;;;;;;;;2.64;43.66;95719.75;5074305;28;1010;-49
2022/01/28 08:18:15;;;;;;;;;;;;;;;0.94;48.76;95709.91;5074068;28;1036;-49
2022/01/28 08:20:43;;;;;;;;;;;;;;;-0.51;53.16;95703.81;5073981;28;1020;-49
2022/01/28 08:23:09;;;;;;;;;;;;;;;-1.07;55.40;95711.06;5073642;28;1093;-49
2022/01/28 08:25:35;;;;;;;;;;;;;;;-1.35;56.90;95703.72;5073922;28;973;-49
2022/01/28 08:28:02;;;;;;;;;;;;;;;-1.48;58.28;95701.69;5073456;28;969;-49
2022/01/28 08:30:29;;;;;;;;;;;;;;;-1.50;58.82;95694.81;5074443;28;1029;-49
2022/01/28 08:32:56;;;;;;;;;;;;;;;-1.44;59.50;95695.38;5075443;28;1914;-48
2022/01/28 08:35:29;;;;;;;;;;;;;;;-1.24;59.17;95683.88;5073548;28;1213;-49
2022/01/28 08:37:57;;;;;;;;;;;;;;;-0.88;58.93;95693.44;5073606;28;1040;-49
2022/01/28 08:40:24;;;;;;;;;;;;;;;-0.76;58.50;95681.47;5073453;28;1025;-49
2022/01/28 08:42:50;;;;;;;;;;;;;;;-0.15;57.37;95684.41;5073245;28;1038;-48
2022/01/28 08:45:16;;;;;;;;;;;;;;;0.53;55.26;95690.28;5073559;28;1040;-48
2022/01/28 08:47:42;;;;;;;;;;;;;;;1.15;53.53;95697.25;5073269;28;1077;-48
2022/01/28 08:50:09;;;;;;;;;;;;;;;2.34;50.77;95698.78;5073335;28;1060;-49
2022/01/28 08:52:35;;;;;;;;;;;;;;;3.35;48.33;95693.94;5073411;28;2028;-48
2022/01/28 08:55:02;;;;;;;;;;;;;;;4.02;46.90;95704.34;5073040;28;1113;-48
2022/01/28 08:57:28;;;;;;;;;;;;;;;5.30;43.51;95702.19;5071976;28;985;-48
2022/01/28 08:59:54;;;;;;;;;;;;;;;7.38;39.65;95700.78;5073174;28;1042;-48
2022/01/28 09:02:20;;;;;;;;;;;;;;;9.07;35.86;95706.63;5073024;28;1228;-49
2022/01/28 09:04:46;;;;;;;;;;;;;;;9.56;34.56;95706.63;5072952;28;929;-48
2022/01/28 09:07:12;;;;;;;;;;;;;;;9.99;33.34;95701.81;5073373;28;997;-49
2022/01/28 09:09:48;;;;;;;;;;;;;;;10.75;32.68;95705.22;5072955;28;1037;-48
2022/01/28 09:12:59;;;;;;;;;;;;;;;11.76;31.12;95709.63;5073287;28;1914;-49
2022/01/28 09:15:07;;;;;;;;;;;;;;;13.24;28.89;95702.38;5070989;28;1456;-50
2022/01/28 09:17:33;;;;;;;;;;;;;;;15.35;26.11;95706.00;5073220;28;1028;-49
2022/01/28 09:19:59;;;;;;;;;;;;;;;16.16;24.96;95701.88;5072940;28;1088;-49
2022/01/28 09:22:25;;;;;;;;;;;;;;;15.10;25.75;95718.72;5073115;28;1045;-50
2022/01/28 09:24:52;;;;;;;;;;;;;;;15.81;25.05;95717.66;5072821;28;1029;-49
2022/01/28 09:27:18;;;;;;;;;;;;;;;17.40;23.56;95705.94;5072717;28;1084;-49
2022/01/28 09:29:44;;;;;;;;;;;;;;;18.54;21.71;95709.53;5072814;28;2107;-49
2022/01/28 09:32:10;;;;;;;;;;;;;;;19.36;21.15;95707.13;5073065;28;1905;-50
2022/01/28 09:34:36;;;;;;;;;;;;;;;19.51;20.46;95720.53;5072698;28;961;-50
2022/01/28 09:37:02;;;;;;;;;;;;;;;20.04;20.32;95715.25;5072740;28;1404;-49
2022/01/28 09:39:30;;;;;;;;;;;;;;;20.25;19.91;95716.94;5072637;28;1026;-50
2022/01/28 09:42:00;;;;;;;;;;;;;;;20.50;19.60;95710.91;5073239;28;1067;-51
2022/01/28 09:44:28;;;;;;;;;;;;;;;20.77;19.51;95709.03;5072553;28;1034;-51
2022/01/28 09:46:54;;;;;;;;;;;;;;;20.51;19.56;95704.44;5072820;28;1061;-51
2022/01/28 09:49:21;;;;;;;;;;;;;;;20.64;19.43;95703.59;5072477;28;1104;-50
2022/01/28 09:51:47;;;;;;;;;;;;;;;21.19;19.13;95701.41;5072910;28;1914;-51
2022/01/28 09:54:13;;;;;;;;;;;;;;;21.18;18.98;95688.84;5072488;28;1013;-50
2022/01/28 09:56:39;;;;;;;;;;;;;;;21.63;18.76;95683.47;5072901;28;1044;-51
2022/01/28 09:59:05;;;;;;;;;;;;;;;22.14;18.06;95672.66;5072288;28;1076;-51
2022/01/28 10:01:31;;;;;;;;;;;;;;;22.46;17.66;95678.09;5072587;28;1342;-50
2022/01/28 10:04:04;;;;;;;;;;;;;;;22.48;18.18;95674.13;5072645;28;1036;-50
2022/01/28 10:06:34;;;;;;;;;;;;;;;23.10;17.44;95682.31;5072852;28;1052;-50
2022/01/28 10:09:05;;;;;;;;;;;;;;;21.97;18.16;95672.41;5076060;28;1036;-50
2022/01/28 10:11:31;;;;;;;;;;;;;;;21.55;18.77;95664.69;5076464;28;1941;-50
2022/01/28 10:14:06;;;;;;;;;;;;;;;21.89;18.39;95662.56;5076207;28;997;-50
2022/01/28 10:16:32;;;;;;;;;;;;;;;21.63;18.65;95652.72;5076569;28;1020;-50
2022/01/28 10:18:59;;;;;;;;;;;;;;;21.49;18.81;95651.94;5075881;28;969;-50
2022/01/28 10:21:25;;;;;;;;;;;;;;;21.23;19.14;95639.28;5076070;28;1104;-50
2022/01/28 10:24:00;;;;;;;;;;;;;;;20.86;19.50;95634.38;5076309;28;969;-51
2022/01/28 10:26:27;;;;;;;;;;;;;;;19.24;21.20;95630.97;5075948;28;1104;-50
2022/01/28 10:28:53;;;;;;;;;;;;;;;15.70;24.89;95636.34;5075824;28;1088;-50
2022/01/28 10:31:19;;;;;;;;;;;;;;;12.28;29.70;95637.28;5075815;28;1883;-50
2022/01/28 10:33:45;;;;;;;;;;;;;;;9.81;33.88;95637.59;5076026;28;2009;-49
2022/01/28 10:36:11;;;;;;;;;;;;;;;8.93;35.65;95632.34;5075720;28;1210;-49
2022/01/28 10:38:41;;;;;;;;;;;;;;;8.59;37.25;95630.91;5075989;28;1024;-49
2022/01/28 10:41:17;;;;;;;;;;;;;;;8.30;37.34;95627.28;5075691;28;1107;-49
2022/01/28 10:43:45;;;;;;;;;;;;;;;8.06;38.02;95619.63;5075864;28;1055;-48
2022/01/28 10:46:11;;;;;;;;;;;;;;;8.06;37.90;95612.47;5075434;28;1069;-48
2022/01/28 10:48:49;;;;;;;;;;;;;;;7.05;38.78;95606.00;5075830;28;1059;-48
2022/01/28 10:51:17;;;;;;;;;;;;;;;7.72;38.85;95611.91;5075531;28;1041;-48
2022/01/28 10:54:01;;;;;;;;;;;;;;;8.02;37.66;95611.91;5075650;28;1910;-47
2022/01/28 10:56:27;;;;;;;;;;;;;;;8.15;38.63;95602.84;5075590;28;1041;-48
2022/01/28 10:58:53;;;;;;;;;;;;;;;8.02;38.22;95606.59;5075313;28;1030;-48
2022/01/28 11:01:19;;;;;;;;;;;;;;;7.86;38.51;95600.91;5075232;28;1100;-48
2022/01/28 11:03:47;;;;;;;;;;;;;;;8.09;37.96;95608.72;5075278;28;1141;-48
2022/01/28 11:06:13;;;;;;;;;;;;;;;7.69;38.44;95601.53;5075140;28;1074;-48
2022/01/28 11:08:40;;;;;;;;;;;;;;;7.81;38.80;95598.63;5075308;28;1085;-48
2022/01/28 11:11:06;;;;;;;;;;;;;;;8.21;38.94;95610.28;5075329;28;978;-48
2022/01/28 11:13:33;;;;;;;;;;;;;;;8.29;38.88;95609.59;5075506;28;1914;-48
2022/01/28 11:15:59;;;;;;;;;;;;;;;8.49;38.84;95602.53;5075337;28;1024;-48
2022/01/28 11:18:26;;;;;;;;;;;;;;;8.78;37.39;95595.44;5074963;28;985;-48
2022/01/28 11:20:55;;;;;;;;;;;;;;;7.79;39.87;95597.09;5075020;28;1004;-48
2022/01/28 11:23:35;;;;;;;;;;;;;;;7.85;40.94;95591.22;5075259;28;997;-47
2022/01/28 11:26:13;;;;;;;;;;;;;;;7.57;41.00;95582.97;5074871;28;1053;-49
2022/01/28 11:28:44;;;;;;;;;;;;;;;7.59;40.89;95581.03;5074808;28;1022;-48
2022/01/28 11:31:10;;;;;;;;;;;;;;;7.12;41.53;95572.63;5074694;28;977;-49
2022/01/28 11:33:44;;;;;;;;;;;;;;;6.99;42.06;95580.78;5075108;28;1918;-49
2022/01/28 11:36:10;;;;;;;;;;;;;;;7.21;42.14;95571.84;5074389;28;1206;-49
2022/01/28 11:38:39;;;;;;;;;;;;;;;7.22;42.14;95583.31;5074765;28;1038;-48
2022/01/28 11:41:10;;;;;;;;;;;;;;;7.30;42.06;95572.03;5074610;28;1061;-49
2022/01/28 11:43:45;;;;;;;;;;;;;;;6.93;42.50;95577.81;5074635;28;1061;-48
2022/01/28 11:46:17;;;;;;;;;;;;;;;6.65;43.15;95564.16;5074532;28;1036;-49
2022/01/28 11:48:52;;;;;;;;;;;;;;;6.42;43.25;95561.56;5074523;28;1033;-49
2022/01/28 11:51:20;;;;;;;;;;;;;;;6.88;43.25;95572.88;5074520;28;977;-48
2022/01/28 11:53:53;;;;;;;;;;;;;;;6.68;43.99;95574.53;5074539;28;1910;-48
2022/01/28 11:56:20;;;;;;;;;;;;;;;6.24;44.39;95576.34;5074454;28;1048;-48
2022/01/28 11:59:00;;;;;;;;;;;;;;;5.77;46.06;95573.84;5074109;28;1050;-48
2022/01/28 12:01:38;;;;;;;;;;;;;;;5.56;47.06;95573.72;5073932;28;1232;-49
2022/01/28 12:04:23;;;;;;;;;;;;;;;5.36;47.29;95577.09;5074318;28;1045;-48
2022/01/28 12:07:06;;;;;;;;;;;;;;;5.38;47.42;95573.34;5074100;28;1059;-48
2022/01/28 12:09:34;;;;;;;;;;;;;;;5.29;47.07;95563.44;5074135;28;1036;-49
2022/01/28 12:12:00;;;;;;;;;;;;;;;5.26;47.06;95561.06;5074079;28;1902;-48
2022/01/28 12:14:45;;;;;;;;;;;;;;;5.15;47.52;95556.56;5074238;28;1033;-48
2022/01/28 12:17:29;;;;;;;;;;;;;;;5.17;47.48;95557.28;5073725;28;982;-49
2022/01/28 12:20:10;;;;;;;;;;;;;;;4.99;48.16;95562.22;5074165;28;1028;-48
2022/01/28 12:22:57;;;;;;;;;;;;;;;5.02;48.27;95550.50;5073968;28;1033;-48
2022/01/28 12:25:35;;;;;;;;;;;;;;;5.01;48.78;95552.34;5032800;28;1171;-48
2022/01/28 12:28:13;;;;;;;;;;;;;;;4.95;49.02;95549.28;5073577;28;1039;-48
2022/01/28 12:30:39;;;;;;;;;;;;;;;4.93;49.74;95541.44;5072828;28;1066;-48
2022/01/28 12:33:05;;;;;;;;;;;;;;;4.88;49.67;95548.94;5072608;28;1906;-48
2022/01/28 12:35:31;;;;;;;;;;;;;;;4.78;49.40;95542.63;5073534;28;1158;-48
2022/01/28 12:38:02;;;;;;;;;;;;;;;4.77;49.99;95535.66;5073472;28;1290;-49
2022/01/28 12:40:35;;;;;;;;;;;;;;;4.84;49.87;95539.53;5073782;28;1013;-48
2022/01/28 12:43:02;;;;;;;;;;;;;;;4.80;50.00;95538.91;5073342;28;1025;-48
2022/01/28 12:45:28;;;;;;;;;;;;;;;4.73;50.93;95544.78;5073602;28;1044;-49
2022/01/28 12:47:54;;;;;;;;;;;;;;;4.59;50.40;95540.50;5073480;28;1028;-48
2022/01/28 12:50:20;;;;;;;;;;;;;;;4.45;51.30;95542.38;5073520;28;1059;-49
2022/01/28 12:52:46;;;;;;;;;;;;;;;4.49;51.79;95538.53;5073073;28;1987;-48
2022/01/28 12:55:12;;;;;;;;;;;;;;;4.50;51.50;95534.97;5073304;28;1849;-49
2022/01/28 12:57:43;;;;;;;;;;;;;;;4.48;51.86;95536.88;5072904;28;982;-48
2022/01/28 13:00:09;;;;;;;;;;;;;;;4.41;51.81;95543.59;5073041;28;1034;-48
2022/01/28 13:02:36;;;;;;;;;;;;;;;4.38;52.14;95548.25;5072970;28;1101;-48
2022/01/28 13:10:19;;;;;;;;;;;;;;;4.30;52.89;95538.22;5073070;28;1029;-49
2022/01/28 13:12:45;;;;;;;;;;;;;;;4.17;53.91;95538.28;5073224;28;1999;-48
2022/01/28 13:15:12;;;;;;;;;;;;;;;4.09;54.03;95535.38;5073264;28;1040;-49
2022/01/28 13:17:39;;;;;;;;;;;;;;;4.09;53.83;95536.19;5073249;28;1032;-48
2022/01/28 13:20:09;;;;;;;;;;;;;;;4.20;53.08;95532.78;5073109;28;1097;-48
2022/01/28 13:22:36;;;;;;;;;;;;;;;4.33;53.12;95531.88;5072815;28;1053;-49
2022/01/28 13:25:14;;;;;;;;;;;;;;;4.38;53.24;95532.38;5072919;28;1033;-49
2022/01/28 13:27:41;;;;;;;;;;;;;;;4.41;52.97;95538.28;5071736;28;1056;-48
2022/01/28 13:30:13;;;;;;;;;;;;;;;4.41;54.03;95535.63;5072774;28;1120;-48
2022/01/28 13:32:41;;;;;;;;;;;;;;;4.40;54.95;95531.31;5073058;28;1910;-49
2022/01/28 13:35:18;;;;;;;;;;;;;;;4.45;54.92;95531.78;5072797;28;1030;-49
2022/01/28 13:37:45;;;;;;;;;;;;;;;4.48;54.30;95542.16;5053194;28;985;-48
2022/01/28 13:40:31;;;;;;;;;;;;;;;4.58;53.69;95552.09;5052740;28;2160;-48
2022/01/28 13:43:08;;;;;;;;;;;;;;;4.72;53.36;95549.22;5056325;28;1855;-48
2022/01/28 13:45:43;;;;;;;;;;;;;;;4.82;53.87;95547.59;5055531;28;1421;-49
2022/01/28 13:48:15;;;;;;;;;;;;;;;4.87;53.56;95542.75;5056517;28;1090;-49
2022/01/28 13:50:43;;;;;;;;;;;;;;;4.93;54.11;95546.75;5057047;28;972;-49
2022/01/28 13:56:10;;;;;;;;;;;;;;;4.81;53.76;95553.84;5044380;28;1269;-49
2022/01/28 13:58:44;;;;;;;;;;;;;;;4.86;54.08;95543.75;5055319;28;974;-48
2022/01/28 14:01:10;;;;;;;;;;;;;;;4.93;53.50;95540.63;5056233;28;1242;-47
2022/01/28 14:03:48;;;;;;;;;;;;;;;5.02;52.87;95540.75;5056614;28;1047;-49
2022/01/28 14:06:24;;;;;;;;;;;;;;;5.05;52.91;95534.41;5056765;28;1028;-48
2022/01/28 14:08:53;;;;;;;;;;;;;;;5.00;52.70;95541.84;5056241;28;978;-48
2022/01/28 14:11:36;;;;;;;;;;;;;;;5.02;53.06;95543.41;5056531;28;978;-48
2022/01/28 14:14:25;;;;;;;;;;;;;;;4.98;53.56;95538.47;5056157;28;1930;-48
2022/01/28 14:16:59;;;;;;;;;;;;;;;4.93;53.44;95540.63;5056396;28;1032;-48
2022/01/28 14:19:29;;;;;;;;;;;;;;;5.00;52.75;95544.50;5056083;28;1033;-49
2022/01/28 14:21:56;;;;;;;;;;;;;;;5.03;53.05;95544.28;5056502;28;960;-48
2022/01/28 14:24:23;;;;;;;;;;;;;;;5.04;52.97;95541.47;5054686;28;1867;-49
2022/01/28 14:32:10;;;;;;;;;;;;;;;5.00;52.88;95557.75;5055848;28;1914;-48
2022/01/28 14:34:37;;;;;;;;;;;;;;;4.99;53.15;95556.03;5055790;28;1899;-48
2022/01/28 14:37:03;;;;;;;;;;;;;;;4.97;53.16;95557.97;5070836;28;1139;-48
2022/01/28 14:39:30;;;;;;;;;;;;;;;4.87;53.03;95563.97;5075893;28;974;-48
2022/01/28 14:42:01;;;;;;;;;;;;;;;4.82;52.93;95546.75;5076307;28;998;-48
2022/01/28 14:44:28;;;;;;;;;;;;;;;4.77;53.93;95562.16;5075713;28;992;-48